Time;durP1;ratioP1;P1;durP2;ratioP2;P2;SDS_P1;SDS_P2;PMS_P1;PMS_P2;Temp;Humidity;BMP_temperature;BMP_pressure;BME280_temperature;BME280_humidity;BME280_pressure;Samples;Min_cycle;Max_cycle;Signal;HPM_P1;HPM_P2
2022/04/24 00:01:49;;;;;;;21.52;7.40;;;;;;;10.75;66.94;99191.56;6344467;22;20062;-74
2022/04/24 00:04:15;;;;;;;20.20;7.95;;;;;;;10.71;67.10;99185.06;6344741;22;20007;-74
2022/04/24 00:06:41;;;;;;;18.48;7.90;;;;;;;10.77;66.68;99189.31;6345398;22;20038;-74
2022/04/24 00:09:07;;;;;;;20.52;8.25;;;;;;;10.75;66.41;99186.09;6316001;22;20029;-73
2022/04/24 00:11:33;;;;;;;22.05;7.72;;;;;;;10.76;66.61;99186.91;6346096;22;20055;-74
2022/04/24 00:13:58;;;;;;;19.77;8.20;;;;;;;10.74;66.89;99183.66;6315533;22;20038;-72
2022/04/24 00:16:24;;;;;;;21.30;7.25;;;;;;;10.76;67.17;99184.16;6343651;22;20007;-74
2022/04/24 00:18:49;;;;;;;18.23;7.18;;;;;;;10.86;67.40;99185.94;6312161;22;20306;-73
2022/04/24 00:21:15;;;;;;;14.95;7.88;;;;;;;10.86;67.55;99197.66;6314866;22;20022;-73
2022/04/24 00:23:40;;;;;;;20.13;8.05;;;;;;;10.87;67.73;99193.03;6343053;22;20021;-73
2022/04/24 00:26:06;;;;;;;21.83;9.32;;;;;;;10.88;68.25;99194.63;6313476;22;20007;-74
2022/04/24 00:28:32;;;;;;;25.75;7.97;;;;;;;10.88;68.97;99189.16;6315324;22;19998;-74
2022/04/24 00:30:57;;;;;;;25.25;9.02;;;;;;;10.78;68.93;99185.50;6338643;22;20003;-72
2022/04/24 00:33:23;;;;;;;23.85;8.73;;;;;;;10.77;69.58;99189.31;6342507;22;20005;-72
2022/04/24 00:35:48;;;;;;;17.90;7.63;;;;;;;10.76;69.10;99192.38;6313805;22;20019;-72
2022/04/24 00:38:14;;;;;;;19.30;7.85;;;;;;;10.76;69.72;99195.09;6314158;22;20009;-73
2022/04/24 00:40:39;;;;;;;22.33;6.93;;;;;;;10.75;69.87;99197.03;6340389;22;20130;-73
2022/04/24 00:43:05;;;;;;;22.83;7.07;;;;;;;10.72;70.60;99191.31;6342703;22;20007;-74
2022/04/24 00:45:30;;;;;;;19.10;7.53;;;;;;;10.67;70.87;99191.41;6322375;22;20003;-74
2022/04/24 00:47:58;;;;;;;20.52;8.18;;;;;;;10.63;71.48;99189.28;6271426;22;20011;-74
2022/04/24 00:50:24;;;;;;;17.63;8.32;;;;;;;10.53;72.06;99188.59;6315000;22;20003;-74
2022/04/24 00:52:50;;;;;;;19.55;7.95;;;;;;;10.56;71.88;99194.31;6315039;22;20448;-73
2022/04/24 00:55:21;;;;;;;19.10;7.75;;;;;;;10.49;71.86;99182.94;6340204;22;20007;-74
2022/04/24 00:57:47;;;;;;;22.15;8.57;;;;;;;10.38;72.18;99179.53;6314265;22;19999;-74
2022/04/24 01:00:13;;;;;;;24.70;8.45;;;;;;;10.29;72.40;99179.38;6289652;22;20055;-75
2022/04/24 01:02:38;;;;;;;23.77;9.02;;;;;;;10.27;72.89;99175.28;6316732;22;20051;-75
2022/04/24 01:05:05;;;;;;;20.25;8.20;;;;;;;10.22;73.19;99178.91;6316811;22;20032;-73
2022/04/24 01:07:31;;;;;;;19.35;8.00;;;;;;;10.21;73.42;99182.75;6313041;22;20140;-74
2022/04/24 01:09:57;;;;;;;22.05;8.32;;;;;;;10.24;73.06;99186.81;6287594;22;20007;-74
2022/04/24 01:12:23;;;;;;;19.67;7.75;;;;;;;10.18;72.82;99197.00;6339025;22;20022;-74
2022/04/24 01:14:48;;;;;;;16.63;7.45;;;;;;;10.17;73.07;99202.75;6341120;22;20002;-74
2022/04/24 01:17:14;;;;;;;16.02;6.38;;;;;;;10.12;73.36;99201.72;6341005;22;20002;-75
2022/04/24 01:19:40;;;;;;;21.23;7.95;;;;;;;10.09;72.90;99212.38;6314434;22;20007;-74
2022/04/24 01:22:05;;;;;;;15.48;7.43;;;;;;;10.03;73.00;99202.63;6263009;22;20018;-74
2022/04/24 01:24:31;;;;;;;17.55;8.10;;;;;;;10.04;73.08;99210.53;6311456;22;20074;-75
2022/04/24 01:26:56;;;;;;;28.17;8.25;;;;;;;10.08;73.56;99216.25;6290111;22;20011;-75
2022/04/24 01:29:22;;;;;;;20.02;8.23;;;;;;;10.05;73.02;99211.38;6313046;22;20012;-74
2022/04/24 01:31:51;;;;;;;20.67;7.75;;;;;;;10.03;73.26;99213.56;6339685;22;20006;-75
2022/04/24 01:34:18;;;;;;;17.05;7.80;;;;;;;10.00;73.21;99214.94;6342823;22;20028;-73
2022/04/24 01:36:44;;;;;;;20.58;8.60;;;;;;;9.94;73.56;99214.22;6314419;22;20064;-73
2022/04/24 01:39:10;;;;;;;16.63;7.20;;;;;;;9.91;73.33;99219.44;6313300;22;20007;-73
2022/04/24 01:41:36;;;;;;;16.08;7.50;;;;;;;9.86;73.58;99217.59;6341076;22;20010;-73
2022/04/24 01:44:01;;;;;;;18.25;7.90;;;;;;;9.81;73.57;99211.38;6313154;22;20447;-73
2022/04/24 01:46:26;;;;;;;15.98;8.23;;;;;;;9.70;73.77;99208.75;6340116;22;20733;-72
2022/04/24 01:48:52;;;;;;;20.13;8.25;;;;;;;9.70;73.82;99205.22;6342039;22;20003;-74
2022/04/24 01:51:18;;;;;;;17.48;8.40;;;;;;;9.73;74.36;99215.56;6341958;22;20006;-73
2022/04/24 01:53:44;;;;;;;17.73;7.03;;;;;;;9.71;73.74;99215.00;6342795;22;20017;-73
2022/04/24 01:56:11;;;;;;;17.77;8.73;;;;;;;9.69;74.16;99214.50;6341941;22;20002;-73
2022/04/24 01:58:37;;;;;;;22.30;9.15;;;;;;;9.70;74.44;99227.06;6314785;22;19999;-73
2022/04/24 02:01:04;;;;;;;22.20;9.15;;;;;;;9.69;74.27;99231.69;6341896;22;20376;-72
2022/04/24 02:03:30;;;;;;;19.50;8.68;;;;;;;9.62;74.38;99223.03;6316258;22;20248;-73
2022/04/24 02:05:56;;;;;;;17.52;8.48;;;;;;;9.59;74.67;99221.72;6315240;22;20057;-73
2022/04/24 02:08:22;;;;;;;19.70;8.32;;;;;;;9.63;74.01;99232.84;6342704;22;19999;-74
2022/04/24 02:10:49;;;;;;;17.35;8.25;;;;;;;9.63;74.55;99232.03;6287409;22;20013;-73
2022/04/24 02:13:22;;;;;;;16.23;7.55;;;;;;;9.64;74.60;99220.00;6341660;22;20052;-73
2022/04/24 02:15:49;;;;;;;23.80;9.07;;;;;;;9.66;73.84;99237.72;6287534;22;20014;-73
2022/04/24 02:18:15;;;;;;;24.33;8.55;;;;;;;9.61;74.45;99230.41;6312189;22;20002;-73
2022/04/24 02:20:40;;;;;;;20.55;8.55;;;;;;;9.64;74.39;99233.66;6341179;22;20074;-72
2022/04/24 02:23:06;;;;;;;16.13;8.95;;;;;;;9.69;73.72;99241.81;6315906;22;20493;-71
2022/04/24 02:25:33;;;;;;;24.08;9.02;;;;;;;9.64;74.61;99236.38;6341901;22;20439;-72
2022/04/24 02:27:58;;;;;;;25.27;9.70;;;;;;;9.66;74.35;99231.47;6312544;22;20072;-70
2022/04/24 02:30:29;;;;;;;19.60;8.90;;;;;;;9.71;74.55;99239.59;6314092;22;20006;-73
2022/04/24 02:32:59;;;;;;;21.77;8.82;;;;;;;9.69;73.95;99236.34;6315444;22;19999;-73
2022/04/24 02:35:24;;;;;;;22.10;9.40;;;;;;;9.67;74.56;99241.28;6341770;22;20006;-72
2022/04/24 02:37:50;;;;;;;23.73;8.95;;;;;;;9.73;74.47;99254.56;6342703;22;20283;-72
2022/04/24 02:40:19;;;;;;;23.17;9.70;;;;;;;9.69;74.53;99248.06;6314267;22;20029;-71
2022/04/24 02:42:45;;;;;;;21.63;8.63;;;;;;;9.67;74.34;99246.75;6314834;22;20060;-71
2022/04/24 02:45:10;;;;;;;21.42;8.90;;;;;;;9.66;74.17;99247.84;6342934;22;20011;-72
2022/04/24 02:47:38;;;;;;;23.45;9.80;;;;;;;9.65;74.52;99246.22;6314755;22;20098;-71
2022/04/24 02:50:04;;;;;;;25.17;9.52;;;;;;;9.65;74.24;99248.94;6338083;22;20006;-73
2022/04/24 02:52:30;;;;;;;21.75;9.52;;;;;;;9.68;74.29;99251.09;6317500;22;19994;-68
2022/04/24 02:54:55;;;;;;;19.90;9.27;;;;;;;9.68;74.21;99256.53;6338210;22;20033;-69
2022/04/24 02:57:20;;;;;;;19.95;9.25;;;;;;;9.67;73.83;99261.19;6286021;22;20017;-68
2022/04/24 02:59:49;;;;;;;25.27;9.68;;;;;;;9.64;73.95;99255.50;6312563;22;20011;-68
2022/04/24 03:02:15;;;;;;;20.75;9.10;;;;;;;9.52;74.06;99253.97;6338178;22;20014;-69
2022/04/24 03:04:40;;;;;;;20.17;9.35;;;;;;;9.58;74.58;99258.28;6338356;22;20030;-67
2022/04/24 03:07:06;;;;;;;20.40;9.10;;;;;;;9.58;74.14;99257.47;6310615;22;20044;-69
2022/04/24 03:09:32;;;;;;;28.60;10.07;;;;;;;9.56;74.30;99263.22;6309680;22;20006;-68
2022/04/24 03:11:58;;;;;;;24.10;9.05;;;;;;;9.57;73.94;99266.75;6310933;22;20009;-68
2022/04/24 03:14:23;;;;;;;25.38;9.40;;;;;;;9.56;74.42;99263.22;6336914;22;20329;-68
2022/04/24 03:16:49;;;;;;;21.85;9.77;;;;;;;9.52;74.58;99259.44;6312494;22;20492;-69
2022/04/24 03:19:14;;;;;;;27.88;10.02;;;;;;;9.50;74.02;99249.91;6340287;22;20010;-69
2022/04/24 03:21:40;;;;;;;27.25;10.82;;;;;;;9.51;74.49;99263.25;6312338;22;20011;-68
2022/04/24 03:24:06;;;;;;;23.98;9.98;;;;;;;9.45;74.06;99267.16;6308827;22;20006;-69
2022/04/24 03:26:31;;;;;;;19.10;8.73;;;;;;;9.38;74.17;99258.47;6311967;22;20014;-69
2022/04/24 03:28:57;;;;;;;26.05;10.88;;;;;;;9.37;74.84;99267.75;6282142;22;20007;-68
2022/04/24 03:31:23;;;;;;;24.25;9.98;;;;;;;9.33;74.91;99272.97;6307912;22;20090;-69
2022/04/24 03:33:50;;;;;;;24.42;10.32;;;;;;;9.29;74.97;99268.34;6311031;22;19999;-68
2022/04/24 03:36:15;;;;;;;21.77;10.15;;;;;;;9.16;75.33;99259.75;6310081;22;20417;-68
2022/04/24 03:38:41;;;;;;;22.98;10.55;;;;;;;9.09;75.33;99262.78;6306764;22;20059;-69
2022/04/24 03:41:06;;;;;;;18.00;8.95;;;;;;;8.97;75.36;99258.81;6336499;22;20310;-69
2022/04/24 03:43:32;;;;;;;20.52;9.82;;;;;;;8.88;76.07;99264.84;6335155;22;20003;-69
2022/04/24 03:45:57;;;;;;;25.27;10.30;;;;;;;8.76;75.59;99256.22;6283587;22;20333;-69
2022/04/24 03:48:22;;;;;;;27.98;11.10;;;;;;;8.71;76.95;99261.69;6339193;22;20071;-70
2022/04/24 03:50:48;;;;;;;20.83;9.63;;;;;;;8.65;76.79;99262.84;6339057;22;20330;-70
2022/04/24 03:53:13;;;;;;;21.80;10.73;;;;;;;8.51;77.38;99266.19;6342880;22;19999;-69
2022/04/24 03:55:39;;;;;;;21.80;9.10;;;;;;;8.43;77.51;99264.00;6316849;22;20514;-69
2022/04/24 03:58:04;;;;;;;22.92;9.40;;;;;;;8.41;77.29;99263.47;6285821;22;20003;-69
2022/04/24 04:00:30;;;;;;;25.10;9.98;;;;;;;8.41;77.81;99257.19;6337950;22;20006;-69
2022/04/24 04:02:55;;;;;;;29.83;10.90;;;;;;;8.45;77.67;99274.66;6312119;22;20413;-70
2022/04/24 04:05:22;;;;;;;25.20;10.02;;;;;;;8.47;78.03;99261.53;6286749;22;20040;-69
2022/04/24 04:07:48;;;;;;;21.27;10.20;;;;;;;8.55;77.35;99264.50;6313303;22;20008;-68
2022/04/24 04:10:13;;;;;;;19.85;9.25;;;;;;;8.56;77.84;99259.88;6312004;22;20009;-68
2022/04/24 04:12:39;;;;;;;22.40;10.32;;;;;;;8.59;76.66;99262.03;6310747;22;20007;-68
2022/04/24 04:15:05;;;;;;;29.00;11.18;;;;;;;8.51;77.42;99263.47;6337823;22;20006;-69
2022/04/24 04:17:32;;;;;;;23.65;11.63;;;;;;;8.43;77.71;99265.91;6336180;22;20026;-67
2022/04/24 04:19:58;;;;;;;25.85;12.02;;;;;;;8.37;77.77;99271.38;6338845;22;20082;-68
2022/04/24 04:22:24;;;;;;;18.45;9.60;;;;;;;8.29;77.66;99271.94;6339900;22;20053;-68
2022/04/24 04:24:50;;;;;;;26.33;10.48;;;;;;;8.24;78.53;99269.25;6340467;22;20011;-67
2022/04/24 04:27:15;;;;;;;21.73;11.27;;;;;;;8.16;77.70;99272.56;6286143;22;20017;-68
2022/04/24 04:29:41;;;;;;;24.00;10.82;;;;;;;8.08;78.29;99287.56;6311332;22;20067;-69
2022/04/24 04:32:09;;;;;;;27.25;11.00;;;;;;;7.97;79.43;99281.34;6337566;22;20009;-74
2022/04/24 04:34:35;;;;;;;30.92;11.48;;;;;;;7.99;79.12;99276.44;6343374;22;20029;-73
2022/04/24 04:37:00;;;;;;;22.17;10.23;;;;;;;7.98;78.66;99293.03;6262191;22;20011;-73
2022/04/24 04:39:26;;;;;;;28.25;10.43;;;;;;;7.93;79.94;99295.75;6342854;22;20013;-73
2022/04/24 04:41:51;;;;;;;27.98;12.18;;;;;;;7.98;79.84;99293.03;6288217;22;20007;-73
2022/04/24 04:44:17;;;;;;;23.48;10.85;;;;;;;8.08;79.74;99298.44;6340230;22;20026;-73
2022/04/24 04:46:43;;;;;;;21.80;11.40;;;;;;;8.15;79.29;99298.19;6314476;22;20009;-69
2022/04/24 04:49:08;;;;;;;26.65;12.15;;;;;;;8.25;78.92;99308.19;6338655;22;20003;-69
2022/04/24 04:51:34;;;;;;;31.35;11.50;;;;;;;8.29;79.16;99303.81;6311883;22;20010;-71
2022/04/24 04:53:59;;;;;;;30.25;11.75;;;;;;;8.32;78.40;99306.00;6283562;22;20485;-70
2022/04/24 04:56:25;;;;;;;32.17;11.93;;;;;;;8.35;78.84;99316.34;6338110;22;20341;-70
2022/04/24 04:58:50;;;;;;;31.45;12.13;;;;;;;8.35;78.60;99319.06;6339031;22;20433;-68
2022/04/24 05:01:16;;;;;;;22.95;10.20;;;;;;;8.26;78.84;99313.38;6306680;22;20381;-69
2022/04/24 05:03:41;;;;;;;28.08;11.02;;;;;;;8.33;78.85;99326.69;6313545;22;20010;-69
2022/04/24 05:06:07;;;;;;;30.98;11.80;;;;;;;8.34;79.04;99339.25;6307666;22;20062;-69
2022/04/24 05:08:33;;;;;;;26.42;11.25;;;;;;;8.31;78.11;99332.44;6339344;22;20014;-70
2022/04/24 05:10:59;;;;;;;23.83;11.23;;;;;;;8.31;78.31;99324.25;6312099;22;20082;-68
2022/04/24 05:13:24;;;;;;;26.38;11.38;;;;;;;8.37;78.66;99339.47;6281748;22;20059;-70
2022/04/24 05:15:50;;;;;;;22.48;10.63;;;;;;;8.51;77.82;99336.19;6336439;22;20007;-70
2022/04/24 05:18:15;;;;;;;25.58;11.82;;;;;;;8.63;77.70;99349.50;6338623;22;20011;-68
2022/04/24 05:20:43;;;;;;;24.90;9.98;;;;;;;8.71;77.56;99343.47;6286915;22;20062;-69
2022/04/24 05:23:08;;;;;;;22.13;10.40;;;;;;;8.79;76.87;99350.22;6311591;22;20002;-69
2022/04/24 05:25:34;;;;;;;25.90;11.27;;;;;;;8.85;77.08;99352.66;6339651;22;20405;-68
2022/04/24 05:28:03;;;;;;;37.40;11.82;;;;;;;8.95;76.99;99359.16;6312425;22;20051;-68
2022/04/24 05:30:28;;;;;;;30.60;11.55;;;;;;;8.94;76.83;99363.00;6311295;22;20068;-68
2022/04/24 05:32:54;;;;;;;26.55;12.65;;;;;;;9.01;77.12;99363.47;6339600;22;20003;-68
2022/04/24 05:35:20;;;;;;;25.52;11.35;;;;;;;9.18;76.53;99374.81;6339980;22;20006;-68
2022/04/24 05:37:47;;;;;;;34.90;12.35;;;;;;;9.26;75.81;99382.41;6340086;22;20002;-73
2022/04/24 05:40:14;;;;;;;25.88;11.02;;;;;;;9.23;75.50;99388.44;6313172;22;20454;-73
2022/04/24 05:42:51;;;;;;;20.98;11.77;;;;;;;9.31;75.89;99373.38;6314164;22;20434;-72
2022/04/24 05:45:18;;;;;;;28.17;12.00;;;;;;;9.44;75.77;99382.84;6341659;22;20007;-72
2022/04/24 05:47:47;;;;;;;25.60;11.30;;;;;;;9.57;75.31;99392.31;6288682;22;20014;-72
2022/04/24 05:50:13;;;;;;;27.35;12.02;;;;;;;9.60;74.90;99392.53;6339666;22;20010;-73
2022/04/24 05:52:40;;;;;;;24.33;11.45;;;;;;;9.66;74.26;99400.72;6340283;22;19998;-72
2022/04/24 05:55:06;;;;;;;21.10;11.13;;;;;;;9.72;74.40;99400.34;6341128;22;19998;-72
2022/04/24 05:57:31;;;;;;;19.88;10.82;;;;;;;9.88;74.22;99398.31;6314413;22;20076;-72
2022/04/24 05:59:58;;;;;;;28.20;11.65;;;;;;;9.85;73.88;99409.81;6313734;22;20081;-72
2022/04/24 06:02:24;;;;;;;22.80;12.30;;;;;;;9.88;73.13;99414.72;6287384;22;19999;-73
2022/04/24 06:04:49;;;;;;;30.40;11.32;;;;;;;9.87;74.09;99415.00;6345591;22;20011;-73
2022/04/24 06:07:14;;;;;;;22.02;9.80;;;;;;;9.86;73.80;99407.94;6343774;22;20056;-72
2022/04/24 06:09:41;;;;;;;21.48;11.70;;;;;;;9.93;73.51;99416.59;6315294;22;20046;-72
2022/04/24 06:12:07;;;;;;;25.65;10.77;;;;;;;9.97;73.90;99417.63;6314215;22;20003;-72
2022/04/24 06:14:33;;;;;;;23.52;11.40;;;;;;;10.03;72.99;99421.13;6288159;22;20059;-73
2022/04/24 06:17:00;;;;;;;28.00;11.32;;;;;;;10.08;73.44;99426.56;6341969;22;20796;-72
2022/04/24 06:19:26;;;;;;;23.80;11.93;;;;;;;10.20;72.55;99437.13;6288091;22;20060;-73
2022/04/24 06:21:52;;;;;;;19.95;10.48;;;;;;;10.39;72.49;99429.03;6307189;22;20012;-73
2022/04/24 06:24:17;;;;;;;22.33;11.15;;;;;;;10.53;72.13;99434.63;6313096;22;20011;-74
2022/04/24 06:26:44;;;;;;;22.75;10.68;;;;;;;10.67;71.57;99441.03;6311381;22;20003;-73
2022/04/24 06:29:11;;;;;;;23.90;11.30;;;;;;;10.74;71.02;99441.50;6312129;22;20330;-73
2022/04/24 06:31:39;;;;;;;21.73;11.20;;;;;;;10.85;70.59;99447.69;6311995;22;20000;-74
2022/04/24 06:34:05;;;;;;;27.35;11.13;;;;;;;10.91;70.66;99456.63;6310263;22;20333;-74
2022/04/24 06:36:31;;;;;;;33.05;13.05;;;;;;;10.84;69.94;99454.25;6310840;22;20070;-73
2022/04/24 06:43:06;;;;;;;;;;;;;;;;;;;;;
2022/04/24 06:45:42;;;;;;;21.50;10.27;;;;;;;10.37;71.96;99459.38;6311822;22;20034;-70
2022/04/24 07:23:03;;;;;;;20.67;10.90;;;;;;;10.93;70.39;99462.63;6307241;22;20023;-70
2022/04/24 07:25:33;;;;;;;24.90;11.82;;;;;;;10.97;69.94;99456.25;6337161;22;20011;-71
2022/04/24 07:28:11;;;;;;;22.67;11.50;;;;;;;11.12;69.75;99459.91;6304045;22;20018;-72
2022/04/24 07:30:48;;;;;;;33.35;12.32;;;;;;;11.03;69.55;99442.53;6337378;22;20002;-71
2022/04/24 07:33:19;;;;;;;31.33;11.85;;;;;;;11.08;69.46;99446.03;6333288;22;20014;-71
2022/04/24 07:36:16;;;;;;;;;;;;;;;;;;;;;
2022/04/24 07:38:44;;;;;;;30.33;11.45;;;;;;;11.18;68.63;99439.59;6336531;22;20368;-73
2022/04/24 07:41:57;;;;;;;25.90;11.40;;;;;;;11.29;68.87;99441.09;6308566;22;20314;-72
2022/04/24 07:44:53;;;;;;;30.20;11.25;;;;;;;11.44;68.46;99447.47;6308378;22;20007;-73
2022/04/24 07:47:26;;;;;;;20.83;11.75;;;;;;;11.60;68.34;99451.59;6336779;22;20059;-73
2022/04/24 07:50:13;;;;;;;;;;;;;;;;;;;;;
2022/04/24 07:52:43;;;;;;;28.95;11.60;;;;;;;11.66;67.05;99455.88;6345916;22;20033;-78
2022/04/24 07:55:32;;;;;;;;;;;;;;;;;;;;;
2022/04/24 07:58:04;;;;;;;25.40;10.65;;;;;;;11.97;66.27;99463.66;6313994;22;20037;-73
2022/04/24 08:00:46;;;;;;;27.15;12.18;;;;;;;12.19;65.98;99462.19;6310713;22;20052;-76
2022/04/24 08:03:22;;;;;;;21.73;9.63;;;;;;;12.48;65.49;99459.22;6311702;22;20014;-74
2022/04/24 08:09:13;;;;;;;24.88;11.88;;;;;;;12.95;63.01;99494.81;6251048;23;20043;-73
2022/04/24 08:12:23;;;;;;;24.50;10.80;;;;;;;12.84;63.59;99479.69;6319922;22;19999;-74
2022/04/24 08:14:50;;;;;;;17.00;9.80;;;;;;;12.98;63.64;99499.72;6331272;22;20022;-72
2022/04/24 08:21:04;;;;;;;22.80;10.88;;;;;;;12.85;62.81;99462.91;6303837;22;20057;-74
2022/04/24 08:24:19;;;;;;;17.38;9.88;;;;;;;13.14;62.13;99508.47;6253808;22;20022;-74
2022/04/24 08:27:52;;;;;;;;;;;;;;;;;;;;;
2022/04/24 08:30:20;;;;;;;22.27;9.10;;;;;;;13.30;62.29;99477.94;6303271;22;20087;-74
2022/04/24 08:32:47;;;;;;;23.48;9.70;;;;;;;13.54;60.81;99499.69;6279886;22;20003;-74
2022/04/24 08:35:23;;;;;;;21.83;10.52;;;;;;;13.42;59.95;99473.56;6278856;22;20015;-73
2022/04/24 08:42:18;;;;;;;20.55;10.10;;;;;;;13.91;59.76;99522.47;6137598;23;20005;-73
2022/04/24 08:45:41;;;;;;;17.52;8.77;;;;;;;14.12;59.20;99500.84;6151998;23;20020;-73
2022/04/24 08:48:04;;;;;;;;;;;;;;;;;;;;;
2022/04/24 08:51:06;;;;;;;19.85;8.13;;;;;;;14.59;57.89;99493.03;6277288;22;20027;-74
2022/04/24 09:02:13;;;;;;;18.95;8.32;;;;;;;18.91;45.30;99526.22;6213732;23;20016;-73
2022/04/24 09:04:57;;;;;;;21.92;8.15;;;;;;;19.02;45.15;99547.56;6134867;23;20078;-73
2022/04/24 09:33:55;;;;;;;11.20;5.20;;;;;;;31.07;23.66;99571.03;6337633;22;20026;-73
2022/04/24 09:36:25;;;;;;;10.63;5.05;;;;;;;31.78;22.68;99580.34;6292629;22;20019;-74
2022/04/24 09:38:51;;;;;;;17.58;5.22;;;;;;;32.59;21.75;99583.97;6347285;22;20341;-74
2022/04/24 09:41:21;;;;;;;13.60;5.57;;;;;;;33.29;20.19;99586.88;6344474;22;20120;-73
2022/04/24 09:43:47;;;;;;;12.10;5.22;;;;;;;34.47;20.01;99587.81;6285589;22;20042;-74
2022/04/24 09:46:12;;;;;;;8.88;4.43;;;;;;;35.69;18.44;99583.09;6311102;22;20010;-75
2022/04/24 09:48:38;;;;;;;15.07;5.07;;;;;;;36.23;17.47;99587.69;6312179;22;20038;-74
2022/04/24 09:51:03;;;;;;;10.55;4.82;;;;;;;37.18;16.97;99595.00;6310336;22;20038;-74
2022/04/24 09:53:31;;;;;;;11.60;4.32;;;;;;;37.77;16.11;99590.59;6336200;22;20627;-74
2022/04/24 09:55:59;;;;;;;9.82;4.22;;;;;;;38.44;15.57;99602.28;6338546;22;20006;-73
2022/04/24 09:58:25;;;;;;;9.30;4.47;;;;;;;38.80;15.49;99603.47;6310506;22;20003;-74
2022/04/24 10:00:52;;;;;;;6.95;3.58;;;;;;;39.41;15.34;99597.63;6311928;22;20002;-73
2022/04/24 10:03:19;;;;;;;8.00;4.03;;;;;;;40.31;14.75;99604.44;6310711;22;20609;-73
2022/04/24 10:05:47;;;;;;;13.68;5.22;;;;;;;40.68;13.85;99592.59;6336015;22;20011;-74
2022/04/24 10:08:13;;;;;;;9.02;4.68;;;;;;;40.50;13.55;99596.47;6337701;22;20448;-73
2022/04/24 10:10:39;;;;;;;7.68;3.88;;;;;;;40.59;13.94;99592.69;6309783;22;20084;-75
2022/04/24 10:13:10;;;;;;;8.18;4.22;;;;;;;40.41;13.07;99590.81;6339478;22;19999;-74
2022/04/24 10:15:38;;;;;;;9.60;4.00;;;;;;;40.69;13.15;99599.91;6341189;22;20074;-72
2022/04/24 10:18:14;;;;;;;13.80;4.68;;;;;;;40.82;12.45;99606.09;6340198;22;20007;-72
2022/04/24 10:20:58;;;;;;;8.63;3.80;;;;;;;40.52;12.86;99610.28;6339221;22;20021;-74
2022/04/24 10:23:34;;;;;;;9.98;4.18;;;;;;;40.18;12.80;99612.50;6341157;22;20005;-72
2022/04/24 10:26:00;;;;;;;7.63;3.92;;;;;;;40.78;13.15;99601.88;6341715;22;19998;-75
2022/04/24 10:28:46;;;;;;;8.10;3.90;;;;;;;42.15;12.15;99619.69;6340830;22;20010;-74
2022/04/24 10:31:12;;;;;;;8.95;3.63;;;;;;;42.53;12.24;99614.88;6312958;22;20006;-73
2022/04/24 10:33:41;;;;;;;6.82;3.67;;;;;;;43.43;11.33;99614.81;6340349;22;19999;-75
2022/04/24 10:36:14;;;;;;;7.97;3.58;;;;;;;43.00;11.23;99617.59;6339792;22;20066;-73
2022/04/24 10:38:54;;;;;;;9.52;3.47;;;;;;;43.01;11.02;99622.06;6341097;22;20009;-73
2022/04/24 10:41:23;;;;;;;6.53;3.60;;;;;;;43.27;10.85;99610.50;6313504;22;19998;-73
2022/04/24 10:43:59;;;;;;;13.40;3.90;;;;;;;43.43;10.86;99620.56;6311453;22;20026;-73
2022/04/24 10:46:28;;;;;;;7.20;3.58;;;;;;;43.78;10.02;99625.13;6341009;22;20075;-73
2022/04/24 10:49:05;;;;;;;8.18;3.47;;;;;;;44.36;10.47;99627.69;6339641;22;19998;-74
2022/04/24 10:51:32;;;;;;;5.45;3.50;;;;;;;45.00;9.49;99632.97;6339486;22;20136;-73
2022/04/24 10:54:16;;;;;;;7.88;3.30;;;;;;;45.06;9.73;99627.25;6311323;22;20056;-72
2022/04/24 10:56:51;;;;;;;8.43;3.10;;;;;;;45.45;9.18;99637.94;6312370;22;20001;-73
2022/04/24 10:59:19;;;;;;;11.35;3.88;;;;;;;45.41;8.55;99625.84;6317366;22;20062;-73
2022/04/24 11:01:52;;;;;;;7.10;3.90;;;;;;;44.98;9.24;99632.72;6346787;22;20006;-74
2022/04/24 11:04:19;;;;;;;9.77;3.63;;;;;;;44.94;9.19;99624.34;6344390;22;20010;-73
2022/04/24 11:06:52;;;;;;;5.78;3.10;;;;;;;45.35;9.37;99627.97;6314819;22;20097;-74
2022/04/24 11:09:18;;;;;;;6.00;3.17;;;;;;;45.77;9.09;99626.78;6339354;22;19999;-73
2022/04/24 11:11:57;;;;;;;4.45;2.58;;;;;;;46.01;8.82;99613.81;6342005;22;19998;-74
2022/04/24 11:14:25;;;;;;;7.70;3.40;;;;;;;45.79;8.37;99627.03;6341297;22;20082;-74
2022/04/24 11:17:01;;;;;;;7.65;3.20;;;;;;;46.39;8.51;99624.91;6338968;22;20003;-74
2022/04/24 11:19:28;;;;;;;10.05;3.47;;;;;;;46.45;8.28;99619.84;6311440;22;20033;-72
2022/04/24 11:22:01;;;;;;;9.50;3.75;;;;;;;47.19;8.11;99614.22;6341458;22;20034;-73
2022/04/24 11:24:31;;;;;;;;;;;;;;;47.66;7.40;99628.44;6338041;22;20002;-74
2022/04/24 11:27:00;;;;;;;11.77;3.63;;;;;;;47.61;7.52;99620.59;6312045;22;19906;-73
2022/04/24 11:29:26;;;;;;;5.38;2.90;;;;;;;47.83;7.78;99624.56;6341322;22;20003;-73
2022/04/24 11:31:53;;;;;;;6.65;2.95;;;;;;;47.72;7.13;99625.50;6312035;22;20455;-73
2022/04/24 11:34:24;;;;;;;6.40;3.35;;;;;;;47.60;7.22;99629.84;6312638;22;20002;-74
2022/04/24 11:36:50;;;;;;;6.85;3.60;;;;;;;47.63;7.43;99617.94;6338175;22;20669;-74
2022/04/24 11:39:18;;;;;;;9.27;3.08;;;;;;;47.00;7.44;99614.94;6340475;22;20003;-73
2022/04/24 11:41:45;;;;;;;8.35;3.40;;;;;;;46.11;8.07;99620.06;6340473;22;20006;-73
2022/04/24 11:52:27;;;;;;;4.95;3.05;;;;;;;44.74;8.86;99613.09;6294876;22;20014;-73
2022/04/24 11:54:53;;;;;;;6.22;3.40;;;;;;;41.58;10.37;99609.59;6340131;22;20417;-74
2022/04/24 11:57:19;;;;;;;7.18;3.75;;;;;;;39.25;11.11;99610.28;6311697;22;20006;-75
2022/04/24 11:59:57;;;;;;;6.97;3.50;;;;;;;38.42;12.30;99606.41;6313384;22;20048;-73
2022/04/24 12:02:28;;;;;;;6.03;2.78;;;;;;;43.00;10.11;99617.59;6339078;22;20030;-74
2022/04/24 12:04:54;;;;;;;7.65;3.97;;;;;;;45.97;7.77;99619.88;6313689;22;20006;-73
2022/04/24 12:07:27;;;;;;;4.03;2.38;;;;;;;46.99;7.13;99616.25;6314614;22;20006;-74
2022/04/24 12:10:01;;;;;;;6.85;2.92;;;;;;;43.28;9.17;99622.78;6341699;22;20030;-74
2022/04/24 12:12:27;;;;;;;5.53;2.83;;;;;;;40.90;10.74;99620.06;6339749;22;20006;-73
2022/04/24 12:14:53;;;;;;;4.28;2.67;;;;;;;43.87;9.21;99621.25;6342500;22;20033;-73
2022/04/24 12:17:20;;;;;;;3.67;2.55;;;;;;;45.24;8.05;99617.22;6342020;22;20485;-74
2022/04/24 12:19:54;;;;;;;5.47;2.70;;;;;;;41.09;9.69;99607.06;6286742;22;20030;-74
2022/04/24 12:22:46;;;;;;;4.75;2.20;;;;;;;43.17;9.90;99612.00;6287137;22;20111;-73
2022/04/24 12:25:17;;;;;;;3.85;2.42;;;;;;;46.52;7.30;99619.28;6333418;22;20025;-74
2022/04/24 12:27:53;;;;;;;4.53;2.20;;;;;;;49.52;6.56;99620.19;6339801;22;20367;-74
2022/04/24 12:30:19;;;;;;;3.40;1.80;;;;;;;51.22;5.46;99633.69;6312744;22;20010;-74
2022/04/24 12:32:45;;;;;;;4.65;2.53;;;;;;;50.27;5.41;99630.50;6311192;22;20479;-73
2022/04/24 12:35:30;;;;;;;4.05;2.22;;;;;;;44.16;7.71;99625.81;6340314;22;20015;-74
2022/04/24 12:37:59;;;;;;;4.10;2.60;;;;;;;39.70;9.94;99613.34;6337369;22;20003;-73
2022/04/24 12:40:25;;;;;;;5.15;2.97;;;;;;;40.09;10.33;99622.75;6339981;22;20010;-73
2022/04/24 12:42:52;;;;;;;4.75;2.00;;;;;;;43.72;8.54;99622.25;6338696;22;20002;-73
2022/04/24 12:45:18;;;;;;;7.70;2.75;;;;;;;46.04;6.98;99629.28;6338792;22;20444;-73
2022/04/24 12:47:43;;;;;;;4.20;2.28;;;;;;;48.36;5.86;99627.75;6306966;22;20030;-73
2022/04/24 13:03:09;;;;;;;;;;;;;;;;;;;;;
2022/04/24 13:06:27;;;;;;;3.10;2.20;;;;;;;48.95;6.28;99650.28;6316433;22;20388;-72
2022/04/24 13:12:27;;;;;;;3.35;2.20;;;;;;;52.34;4.18;99629.56;6343121;22;20063;-73
2022/04/24 13:14:59;;;;;;;2.70;2.08;;;;;;;50.47;4.73;99634.75;6315793;22;20011;-74
2022/04/24 13:20:58;;;;;;;4.25;2.42;;;;;;;39.36;9.71;99601.16;6339714;22;20018;-72
2022/04/24 13:26:53;;;;;;;3.45;2.42;;;;;;;33.39;14.22;99603.59;6342074;22;20064;-74
2022/04/24 13:30:09;;;;;;;5.63;2.90;;;;;;;33.39;14.97;99620.59;6315827;22;20056;-72
2022/04/24 13:33:09;;;;;;;5.07;2.78;;;;;;;41.35;10.12;99632.22;6339992;22;20018;-72
2022/04/24 13:36:25;;;;;;;4.63;2.30;;;;;;;40.22;10.02;99625.34;6313021;22;20530;-73
2022/04/24 13:39:11;;;;;;;2.97;2.33;;;;;;;36.47;11.81;99619.34;6213670;23;20086;-72
2022/04/24 13:42:26;;;;;;;3.22;2.15;;;;;;;34.92;13.07;99621.72;6341591;22;20092;-72
2022/04/24 13:51:17;;;;;;;3.90;2.28;;;;;;;43.92;8.22;99646.41;6308196;22;20163;-77
2022/04/24 13:54:08;;;;;;;3.58;2.33;;;;;;;39.52;10.27;99640.00;6340974;22;20015;-74
2022/04/24 14:07:39;;;;;;;4.78;2.53;;;;;;;30.04;17.34;99620.69;6275830;22;20290;-74